Time;durP1;ratioP1;P1;durP2;ratioP2;P2;SDS_P1;SDS_P2;PMS_P1;PMS_P2;Temp;Humidity;BMP_temperature;BMP_pressure;BME280_temperature;BME280_humidity;BME280_pressure;Samples;Min_cycle;Max_cycle;Signal;HPM_P1;HPM_P2
2020/12/17 00:02:01;;;;;;;32.47;19.27;;;4.30;53.00;;;;;;5046267;28;20235;-59
2020/12/17 00:04:27;;;;;;;30.58;17.95;;;4.20;53.40;;;;;;5048499;28;20193;-61
2020/12/17 00:06:54;;;;;;;29.30;17.73;;;4.20;52.50;;;;;;5043965;28;21003;-61
2020/12/17 00:09:20;;;;;;;30.88;17.25;;;4.20;51.80;;;;;;5049686;28;20194;-62
2020/12/17 00:11:46;;;;;;;26.75;17.23;;;4.30;50.00;;;;;;5048535;28;20308;-61
2020/12/17 00:14:12;;;;;;;28.73;18.05;;;4.30;49.70;;;;;;5047668;28;20190;-62
2020/12/17 00:16:38;;;;;;;30.70;19.90;;;4.30;48.50;;;;;;5048568;28;20197;-61
2020/12/17 00:19:04;;;;;;;32.27;19.17;;;4.30;47.20;;;;;;5046148;28;20188;-61
2020/12/17 00:21:30;;;;;;;31.15;17.52;;;4.20;46.10;;;;;;5048593;28;20489;-60
2020/12/17 00:23:56;;;;;;;26.80;17.40;;;4.30;46.30;;;;;;5037561;28;20185;-60
2020/12/17 00:26:25;;;;;;;28.27;17.40;;;4.20;44.50;;;;;;5028715;28;20274;-61
2020/12/17 00:28:54;;;;;;;30.58;17.25;;;4.20;44.60;;;;;;5038412;28;20268;-61
2020/12/17 00:31:20;;;;;;;31.40;18.33;;;4.20;43.80;;;;;;5048257;28;20196;-61
2020/12/17 00:33:47;;;;;;;26.90;17.02;;;4.20;43.90;;;;;;5046573;28;20246;-61
2020/12/17 00:36:20;;;;;;;29.60;18.05;;;4.20;44.80;;;;;;5047650;28;20217;-61
2020/12/17 00:38:47;;;;;;;29.98;17.42;;;4.20;43.90;;;;;;5051760;28;20185;-60
2020/12/17 00:41:17;;;;;;;28.55;19.05;;;4.20;42.40;;;;;;5052478;28;20205;-61
2020/12/17 00:43:44;;;;;;;31.02;17.27;;;4.10;39.70;;;;;;5047638;28;20585;-61
2020/12/17 00:46:14;;;;;;;26.02;18.05;;;4.10;40.40;;;;;;5049917;28;20887;-61
2020/12/17 00:48:40;;;;;;;33.13;19.38;;;4.20;39.60;;;;;;5050696;28;20182;-61
2020/12/17 00:51:06;;;;;;;30.05;18.90;;;4.10;38.90;;;;;;5048355;28;20207;-62
2020/12/17 00:53:31;;;;;;;28.10;16.87;;;4.10;39.70;;;;;;5048965;28;20197;-62
2020/12/17 00:55:57;;;;;;;30.13;18.97;;;4.10;38.70;;;;;;5050563;28;20209;-61
2020/12/17 00:58:22;;;;;;;30.27;19.90;;;4.10;40.60;;;;;;5051009;28;20548;-61
2020/12/17 01:00:48;;;;;;;28.30;18.47;;;4.00;38.80;;;;;;5050478;28;20190;-58
2020/12/17 01:03:14;;;;;;;28.87;18.10;;;4.00;40.10;;;;;;5050529;28;20251;-61
2020/12/17 01:05:39;;;;;;;32.60;19.23;;;4.00;42.80;;;;;;5050414;28;20190;-62
2020/12/17 01:08:05;;;;;;;30.80;18.33;;;4.00;39.80;;;;;;5049710;28;20229;-61
2020/12/17 01:10:31;;;;;;;30.13;18.30;;;4.00;41.80;;;;;;5051571;28;20737;-62
2020/12/17 01:12:56;;;;;;;28.13;17.43;;;4.00;38.60;;;;;;5048688;28;20883;-61
2020/12/17 01:15:22;;;;;;;30.40;18.53;;;4.00;36.00;;;;;;5046677;28;20182;-62
2020/12/17 01:17:49;;;;;;;29.80;18.20;;;4.00;35.90;;;;;;5049626;28;20182;-62
2020/12/17 01:20:15;;;;;;;26.67;16.42;;;4.00;37.00;;;;;;5045296;28;20201;-62
2020/12/17 01:22:40;;;;;;;28.35;18.48;;;4.00;35.90;;;;;;5046512;28;20706;-62
2020/12/17 01:25:06;;;;;;;26.90;17.60;;;4.00;35.50;;;;;;5050967;28;20185;-61
2020/12/17 01:27:32;;;;;;;31.00;18.40;;;4.00;35.50;;;;;;5050326;28;20233;-61
2020/12/17 01:29:57;;;;;;;30.33;17.80;;;3.90;34.90;;;;;;5048298;28;20236;-61
2020/12/17 01:32:23;;;;;;;32.53;18.10;;;4.00;34.00;;;;;;5050101;28;20235;-61
2020/12/17 01:34:49;;;;;;;27.77;17.70;;;3.90;35.40;;;;;;5056200;28;20247;-61
2020/12/17 01:37:15;;;;;;;27.67;16.60;;;3.90;36.40;;;;;;5053021;28;20821;-61
2020/12/17 01:39:41;;;;;;;30.20;18.60;;;4.00;38.90;;;;;;5050357;28;20268;-61
2020/12/17 01:42:07;;;;;;;33.17;19.67;;;3.90;36.20;;;;;;5048551;28;20440;-61
2020/12/17 01:44:37;;;;;;;30.37;18.63;;;3.90;37.00;;;;;;5049744;28;20938;-60
2020/12/17 01:47:03;;;;;;;30.00;18.48;;;3.90;36.40;;;;;;5048635;28;20269;-61
2020/12/17 01:49:29;;;;;;;35.20;18.60;;;3.90;37.20;;;;;;5039211;28;20280;-61
2020/12/17 01:51:54;;;;;;;30.83;18.30;;;3.90;38.00;;;;;;5050189;28;20189;-58
2020/12/17 01:54:21;;;;;;;31.60;19.40;;;3.90;39.00;;;;;;5050085;28;20549;-61
2020/12/17 01:56:51;;;;;;;33.80;19.45;;;3.90;39.20;;;;;;5050292;28;20603;-61
2020/12/17 01:59:24;;;;;;;34.92;19.13;;;3.80;41.50;;;;;;5049306;28;20170;-61
2020/12/17 02:01:52;;;;;;;34.67;19.55;;;3.90;41.30;;;;;;5033965;28;20193;-60
2020/12/17 02:04:19;;;;;;;29.63;18.50;;;3.90;40.60;;;;;;5049264;28;20178;-58
2020/12/17 02:06:45;;;;;;;38.13;20.90;;;3.80;40.60;;;;;;5050169;28;20190;-61
2020/12/17 02:09:13;;;;;;;32.30;19.30;;;3.90;43.50;;;;;;5048790;28;20265;-61
2020/12/17 02:11:39;;;;;;;30.67;18.15;;;3.80;42.80;;;;;;5048984;28;20182;-61
2020/12/17 02:14:05;;;;;;;30.07;18.50;;;3.80;43.60;;;;;;5049511;28;20624;-61
2020/12/17 02:16:30;;;;;;;31.77;19.73;;;3.80;43.50;;;;;;5031990;28;20212;-61
2020/12/17 02:18:56;;;;;;;31.90;19.10;;;3.80;44.70;;;;;;5046158;28;20224;-61
2020/12/17 02:21:22;;;;;;;34.30;19.90;;;3.80;44.00;;;;;;5049591;28;20268;-62
2020/12/17 02:23:48;;;;;;;30.63;18.55;;;3.80;46.90;;;;;;5048632;28;20214;-62
2020/12/17 02:26:14;;;;;;;32.10;19.42;;;3.80;47.40;;;;;;5049751;28;20199;-62
2020/12/17 02:28:41;;;;;;;30.13;19.10;;;3.80;48.80;;;;;;5051431;28;20243;-61
2020/12/17 02:31:07;;;;;;;35.70;19.73;;;3.80;48.30;;;;;;5048088;28;20189;-61
2020/12/17 02:33:32;;;;;;;32.30;20.30;;;3.80;45.80;;;;;;5049642;28;20231;-60
2020/12/17 02:35:58;;;;;;;32.73;18.23;;;3.80;44.30;;;;;;5057815;28;20649;-61
2020/12/17 02:38:24;;;;;;;33.20;18.90;;;3.80;45.40;;;;;;5049676;28;20597;-62
2020/12/17 02:40:51;;;;;;;33.77;20.30;;;3.80;45.10;;;;;;5048127;28;20182;-62
2020/12/17 02:43:17;;;;;;;31.27;18.17;;;3.80;44.20;;;;;;5049990;28;20424;-62
2020/12/17 02:45:46;;;;;;;31.50;18.10;;;3.80;44.80;;;;;;5046859;28;20260;-62
2020/12/17 02:48:12;;;;;;;33.35;18.67;;;3.80;43.50;;;;;;5049434;28;20420;-61
2020/12/17 02:50:39;;;;;;;33.80;20.02;;;3.80;42.50;;;;;;5047754;28;20903;-61
2020/12/17 02:53:06;;;;;;;27.20;16.50;;;3.80;41.10;;;;;;5041339;28;21124;-61
2020/12/17 02:55:31;;;;;;;29.40;17.92;;;3.80;39.60;;;;;;5048819;28;20246;-61
2020/12/17 02:57:57;;;;;;;33.60;18.73;;;3.90;39.80;;;;;;5049497;28;20182;-61
2020/12/17 03:00:23;;;;;;;30.20;18.07;;;3.90;38.60;;;;;;5047303;28;20189;-61
2020/12/17 03:02:49;;;;;;;28.83;17.87;;;3.90;34.10;;;;;;5049622;28;20702;-62
2020/12/17 03:05:14;;;;;;;26.70;18.30;;;3.90;35.40;;;;;;5047549;28;20475;-62
2020/12/17 03:07:40;;;;;;;28.73;18.27;;;3.90;34.00;;;;;;5048808;28;20197;-62
2020/12/17 03:10:06;;;;;;;30.33;17.07;;;3.90;37.80;;;;;;5046332;28;20193;-61
2020/12/17 03:12:32;;;;;;;28.95;17.35;;;3.90;35.60;;;;;;5036975;28;20269;-61
2020/12/17 03:14:58;;;;;;;30.87;18.23;;;3.90;34.80;;;;;;5046924;28;20284;-61
2020/12/17 03:17:24;;;;;;;29.57;17.50;;;3.90;32.80;;;;;;5048339;28;20209;-61
2020/12/17 03:19:49;;;;;;;30.55;17.48;;;3.90;32.20;;;;;;5042893;28;20199;-62
2020/12/17 03:22:15;;;;;;;31.27;18.60;;;3.90;30.80;;;;;;5045720;28;20205;-62
2020/12/17 03:24:41;;;;;;;31.00;18.13;;;3.90;29.90;;;;;;5038032;28;20190;-61
2020/12/17 03:27:07;;;;;;;26.50;17.30;;;3.90;30.20;;;;;;5049382;28;20182;-61
2020/12/17 03:29:32;;;;;;;29.03;17.80;;;3.90;32.50;;;;;;5048247;28;20444;-61
2020/12/17 03:31:58;;;;;;;30.70;18.70;;;3.90;32.00;;;;;;5047910;28;20237;-61
2020/12/17 03:34:23;;;;;;;25.60;15.93;;;3.90;32.40;;;;;;5047571;28;20240;-61
2020/12/17 03:36:49;;;;;;;31.60;17.90;;;3.90;33.50;;;;;;5047564;28;20194;-61
2020/12/17 03:39:15;;;;;;;29.30;18.20;;;3.90;36.00;;;;;;5043725;28;20248;-61
2020/12/17 03:41:40;;;;;;;32.30;18.40;;;3.90;33.20;;;;;;5050939;28;20199;-61
2020/12/17 03:44:06;;;;;;;31.53;17.37;;;3.90;33.70;;;;;;5048707;28;20323;-61
2020/12/17 03:46:31;;;;;;;31.70;19.90;;;3.90;32.50;;;;;;5046587;28;20196;-61
2020/12/17 03:48:57;;;;;;;32.73;19.00;;;3.90;33.30;;;;;;5046838;28;20190;-61
2020/12/17 03:51:23;;;;;;;30.37;18.00;;;3.90;35.20;;;;;;5048257;28;20201;-61
2020/12/17 03:53:48;;;;;;;28.13;17.30;;;3.90;33.80;;;;;;5042587;28;20221;-62
2020/12/17 03:56:14;;;;;;;30.90;18.50;;;3.90;31.20;;;;;;5046573;28;20206;-61
2020/12/17 03:58:40;;;;;;;29.45;17.13;;;4.00;32.10;;;;;;5047974;28;20185;-61
2020/12/17 04:01:06;;;;;;;27.30;17.53;;;4.00;31.90;;;;;;5048666;28;20174;-61
2020/12/17 04:03:31;;;;;;;27.20;16.63;;;4.00;30.10;;;;;;5048680;28;20170;-61
2020/12/17 04:05:57;;;;;;;27.20;16.93;;;4.00;29.20;;;;;;5047783;28;20264;-61
2020/12/17 04:08:22;;;;;;;27.67;17.97;;;4.00;29.00;;;;;;5049231;28;20637;-61
2020/12/17 04:10:48;;;;;;;32.20;18.27;;;4.00;32.20;;;;;;5047124;28;20190;-61
2020/12/17 04:13:14;;;;;;;30.90;18.47;;;3.90;32.80;;;;;;5048777;28;20249;-61
2020/12/17 04:15:39;;;;;;;29.60;17.00;;;3.90;33.30;;;;;;5046552;28;20236;-61
2020/12/17 04:18:05;;;;;;;30.63;17.57;;;3.90;34.20;;;;;;5048284;28;20186;-61
2020/12/17 04:20:30;;;;;;;29.80;17.20;;;3.90;33.20;;;;;;5050357;28;20866;-61
2020/12/17 04:22:56;;;;;;;28.20;17.27;;;3.90;33.70;;;;;;5064646;28;20678;-61
2020/12/17 04:25:21;;;;;;;28.57;16.13;;;3.90;34.70;;;;;;5053051;28;20190;-58
2020/12/17 04:27:47;;;;;;;31.47;17.47;;;3.90;31.70;;;;;;5053500;28;20196;-62
2020/12/17 04:30:13;;;;;;;28.20;16.83;;;3.90;29.40;;;;;;5063750;28;20192;-61
2020/12/17 04:32:38;;;;;;;29.83;17.13;;;3.90;32.20;;;;;;5060543;28;20217;-61
2020/12/17 04:35:04;;;;;;;29.70;16.73;;;3.90;31.60;;;;;;5061655;28;20193;-61
2020/12/17 04:37:30;;;;;;;31.90;17.17;;;3.90;30.50;;;;;;5067920;28;20205;-62
2020/12/17 04:39:55;;;;;;;27.13;16.47;;;3.90;31.80;;;;;;5067447;28;20185;-61
2020/12/17 04:42:22;;;;;;;26.73;15.80;;;3.90;31.90;;;;;;5066799;28;20184;-61
2020/12/17 04:44:49;;;;;;;29.63;16.92;;;3.90;33.60;;;;;;5063776;28;21023;-61
2020/12/17 04:47:19;;;;;;;30.23;16.90;;;3.90;35.50;;;;;;5061888;28;21081;-61
2020/12/17 04:49:52;;;;;;;25.65;16.88;;;3.90;35.80;;;;;;5060294;28;20266;-64
2020/12/17 04:52:22;;;;;;;30.05;16.60;;;3.90;37.30;;;;;;5056706;28;20186;-64
2020/12/17 04:54:49;;;;;;;26.80;15.93;;;3.90;39.00;;;;;;5058153;28;20813;-60
2020/12/17 04:57:16;;;;;;;29.00;16.95;;;3.90;38.30;;;;;;5042456;28;20214;-61
2020/12/17 04:59:49;;;;;;;28.00;16.48;;;3.90;37.70;;;;;;5064954;28;20311;-61
2020/12/17 05:02:17;;;;;;;25.38;16.70;;;3.90;39.20;;;;;;5066061;28;20938;-60
2020/12/17 05:04:45;;;;;;;28.08;15.50;;;3.90;38.30;;;;;;5070127;28;20203;-64
2020/12/17 05:07:15;;;;;;;25.52;15.90;;;3.90;39.90;;;;;;5053960;28;20765;-64
2020/12/17 05:09:42;;;;;;;27.42;16.10;;;3.90;38.50;;;;;;5055104;28;20205;-60
2020/12/17 05:12:09;;;;;;;27.48;16.40;;;3.90;40.00;;;;;;5061938;28;20205;-62
2020/12/17 05:14:36;;;;;;;27.73;16.35;;;3.90;39.00;;;;;;5063754;28;20185;-68
2020/12/17 05:17:02;;;;;;;26.90;16.77;;;3.90;37.90;;;;;;5047958;28;20205;-64
2020/12/17 05:19:28;;;;;;;27.83;17.42;;;3.90;38.20;;;;;;5041412;28;20225;-64
2020/12/17 05:21:55;;;;;;;29.33;16.37;;;3.90;37.50;;;;;;5041197;28;20305;-61
2020/12/17 05:24:22;;;;;;;27.10;15.95;;;4.00;36.60;;;;;;5041536;28;20493;-62
2020/12/17 05:26:49;;;;;;;29.45;16.33;;;4.00;37.80;;;;;;5041671;28;20189;-62
2020/12/17 05:29:19;;;;;;;30.15;17.10;;;3.90;37.20;;;;;;5042397;28;20186;-62
2020/12/17 05:31:45;;;;;;;28.38;16.23;;;4.00;39.40;;;;;;5040303;28;20201;-62
2020/12/17 05:34:12;;;;;;;27.30;16.13;;;3.90;39.40;;;;;;5023290;28;20186;-64
2020/12/17 05:36:39;;;;;;;26.70;15.88;;;3.90;38.80;;;;;;5042314;28;20218;-62
2020/12/17 05:39:12;;;;;;;29.20;16.05;;;4.00;38.60;;;;;;5052069;28;20191;-61
2020/12/17 05:41:43;;;;;;;27.98;17.05;;;3.90;38.40;;;;;;5049329;28;20181;-62
2020/12/17 05:44:16;;;;;;;28.23;17.15;;;3.90;38.20;;;;;;5053365;28;20691;-61
2020/12/17 05:46:44;;;;;;;33.92;17.08;;;4.00;37.50;;;;;;5056376;28;20260;-62
2020/12/17 05:49:15;;;;;;;31.00;18.42;;;3.90;37.20;;;;;;5050004;28;20195;-62
2020/12/17 05:51:41;;;;;;;30.80;17.15;;;3.90;38.50;;;;;;5050705;28;20239;-62
2020/12/17 05:54:19;;;;;;;34.17;18.85;;;3.90;37.40;;;;;;5059065;28;20220;-62
2020/12/17 05:56:44;;;;;;;32.22;18.58;;;3.90;35.50;;;;;;5050583;28;20201;-62
2020/12/17 05:59:10;;;;;;;37.17;19.70;;;3.90;35.00;;;;;;5050487;28;20192;-62
2020/12/17 06:01:36;;;;;;;30.50;17.70;;;3.90;36.50;;;;;;5047716;28;20181;-63
2020/12/17 06:04:14;;;;;;;31.27;18.08;;;4.00;36.10;;;;;;5053546;28;20223;-63
2020/12/17 06:06:46;;;;;;;30.15;18.08;;;3.90;32.50;;;;;;5050376;28;20269;-62
2020/12/17 06:09:22;;;;;;;29.75;17.13;;;3.90;30.70;;;;;;5049278;28;20182;-63
2020/12/17 06:11:49;;;;;;;28.70;17.35;;;3.90;30.00;;;;;;5050193;28;20177;-62
2020/12/17 06:14:20;;;;;;;29.23;17.25;;;4.00;30.70;;;;;;5057311;28;20507;-61
2020/12/17 06:16:52;;;;;;;30.10;16.92;;;3.90;30.80;;;;;;5050762;28;20284;-62
2020/12/17 06:19:22;;;;;;;31.05;18.70;;;3.90;34.70;;;;;;5036363;28;20181;-62
2020/12/17 06:21:48;;;;;;;33.85;18.02;;;3.90;29.80;;;;;;5050002;28;20181;-62
2020/12/17 06:24:16;;;;;;;29.70;17.37;;;3.90;31.10;;;;;;5048791;28;20209;-62
2020/12/17 06:26:50;;;;;;;29.63;18.02;;;3.90;31.60;;;;;;5049233;28;20178;-62
2020/12/17 06:29:24;;;;;;;29.23;17.88;;;3.90;31.20;;;;;;5050244;28;20189;-62
2020/12/17 06:31:56;;;;;;;30.50;18.50;;;3.90;31.20;;;;;;5049582;28;20205;-62
2020/12/17 06:34:22;;;;;;;29.55;18.10;;;3.80;33.40;;;;;;5050129;28;20185;-62
2020/12/17 06:36:58;;;;;;;29.60;18.65;;;3.80;35.50;;;;;;5061119;28;20194;-62
2020/12/17 06:39:24;;;;;;;30.73;18.60;;;3.80;34.80;;;;;;5051933;28;20199;-61
2020/12/17 06:41:50;;;;;;;29.00;17.55;;;3.80;33.20;;;;;;5052901;28;20251;-62
2020/12/17 06:44:26;;;;;;;34.20;19.53;;;3.80;33.90;;;;;;5051348;28;20673;-62
2020/12/17 06:47:03;;;;;;;30.65;18.15;;;3.80;36.00;;;;;;5048948;28;20435;-62
2020/12/17 06:49:31;;;;;;;33.35;19.08;;;3.80;36.80;;;;;;5048841;28;20721;-61
2020/12/17 06:52:09;;;;;;;33.00;18.63;;;3.80;33.50;;;;;;5049149;28;20243;-61
2020/12/17 06:54:42;;;;;;;34.78;17.73;;;3.70;33.10;;;;;;5048780;28;20533;-61
2020/12/17 06:57:12;;;;;;;28.27;16.80;;;3.70;33.00;;;;;;5051555;28;21010;-61
2020/12/17 06:59:40;;;;;;;31.50;18.45;;;3.80;31.70;;;;;;5049412;28;20235;-62
2020/12/17 07:02:06;;;;;;;33.92;18.48;;;3.80;30.00;;;;;;5049207;28;20240;-62
2020/12/17 07:04:45;;;;;;;33.27;19.23;;;3.80;30.70;;;;;;5064007;28;20547;-62
2020/12/17 07:07:19;;;;;;;30.15;17.90;;;3.80;34.00;;;;;;5069150;28;20189;-62
2020/12/17 07:09:47;;;;;;;31.23;17.40;;;3.80;31.40;;;;;;5060093;28;20185;-62
2020/12/17 07:12:36;;;;;;;31.42;19.38;;;3.80;29.20;;;;;;5049372;28;20185;-58
2020/12/17 07:15:03;;;;;;;34.95;18.42;;;3.80;28.20;;;;;;5065446;28;20638;-62
2020/12/17 07:17:29;;;;;;;32.22;19.05;;;3.80;28.70;;;;;;5056331;28;20206;-61
2020/12/17 07:19:54;;;;;;;30.13;18.57;;;3.80;25.90;;;;;;5057928;28;20186;-61
2020/12/17 07:22:20;;;;;;;36.20;20.20;;;3.80;27.60;;;;;;5048442;28;20169;-60
2020/12/17 07:24:53;;;;;;;35.03;20.27;;;3.80;27.50;;;;;;5030913;28;20205;-63
2020/12/17 07:27:23;;;;;;;28.88;18.08;;;3.80;28.50;;;;;;5050083;28;20244;-63
2020/12/17 07:30:05;;;;;;;36.00;19.20;;;3.80;28.70;;;;;;5058931;28;20181;-64
2020/12/17 07:32:46;;;;;;;35.63;19.90;;;3.80;26.90;;;;;;5048482;28;20201;-65
2020/12/17 07:35:12;;;;;;;35.85;19.83;;;3.80;26.60;;;;;;5047292;28;20208;-64
2020/12/17 07:37:45;;;;;;;32.03;18.17;;;3.80;26.10;;;;;;5044724;28;20958;-65
2020/12/17 07:40:13;;;;;;;32.53;18.40;;;3.80;25.50;;;;;;5048609;28;20178;-65
2020/12/17 07:42:39;;;;;;;35.67;22.27;;;3.90;25.70;;;;;;5054602;28;20181;-65
2020/12/17 07:45:06;;;;;;;37.45;20.30;;;3.90;25.70;;;;;;5047790;28;20232;-65
2020/12/17 07:47:32;;;;;;;38.28;18.85;;;4.00;22.40;;;;;;5048659;28;20181;-65
2020/12/17 07:49:58;;;;;;;34.80;19.93;;;4.00;18.80;;;;;;5048173;28;20185;-65
2020/12/17 07:52:34;;;;;;;36.85;18.48;;;4.10;17.50;;;;;;5048473;28;20217;-65
2020/12/17 07:55:01;;;;;;;29.42;18.85;;;4.20;13.90;;;;;;5049924;28;20597;-65
2020/12/17 07:57:27;;;;;;;32.10;19.38;;;4.20;11.70;;;;;;5052421;28;20208;-65
2020/12/17 07:59:53;;;;;;;35.50;19.50;;;4.30;9.60;;;;;;5052147;28;20178;-65
2020/12/17 08:02:19;;;;;;;35.60;18.77;;;4.30;6.40;;;;;;5052023;28;20499;-65
2020/12/17 08:04:56;;;;;;;31.70;18.53;;;4.40;3.10;;;;;;5048207;28;20993;-60
2020/12/17 08:07:22;;;;;;;32.90;19.10;;;4.50;1.00;;;;;;5050931;28;20829;-61
2020/12/17 08:10:01;;;;;;;32.00;18.90;;;4.60;1.00;;;;;;5051009;28;20269;-62
2020/12/17 08:12:27;;;;;;;28.75;18.65;;;4.80;1.00;;;;;;5049830;28;20333;-62
2020/12/17 08:14:53;;;;;;;34.80;20.57;;;4.90;1.00;;;;;;5050967;28;20181;-63
2020/12/17 08:17:20;;;;;;;30.85;19.17;;;5.00;1.00;;;;;;5053625;28;20459;-61
2020/12/17 08:19:57;;;;;;;31.25;17.95;;;5.20;1.00;;;;;;5050392;28;20170;-60
2020/12/17 08:22:28;;;;;;;34.90;20.73;;;5.30;1.00;;;;;;5048357;28;20181;-63
2020/12/17 08:24:54;;;;;;;28.90;18.42;;;5.50;1.00;;;;;;5051177;28;20260;-61
2020/12/17 08:27:22;;;;;;;31.48;18.45;;;5.60;1.00;;;;;;5050953;28;20182;-62
2020/12/17 08:29:48;;;;;;;31.75;18.25;;;5.90;1.00;;;;;;5051049;28;20197;-61
2020/12/17 08:32:14;;;;;;;31.30;18.80;;;6.00;1.00;;;;;;5050857;28;20194;-61
2020/12/17 08:34:53;;;;;;;30.95;18.60;;;6.20;1.00;;;;;;5051052;28;20609;-59
2020/12/17 08:37:20;;;;;;;34.92;20.27;;;6.40;1.00;;;;;;5050720;28;20197;-61
2020/12/17 08:39:55;;;;;;;33.88;19.50;;;6.60;1.00;;;;;;5051122;28;20180;-64
2020/12/17 08:42:22;;;;;;;29.20;18.20;;;6.90;1.00;;;;;;5050627;28;20730;-67
2020/12/17 08:44:47;;;;;;;32.43;19.43;;;7.10;99.90;;;;;;5051212;28;20323;-64
2020/12/17 08:47:13;;;;;;;33.70;19.10;;;7.30;99.90;;;;;;5050410;28;20419;-64
2020/12/17 08:49:42;;;;;;;28.73;18.23;;;7.50;1.00;;;;;;5051118;28;20543;-64
2020/12/17 08:52:08;;;;;;;31.37;19.27;;;7.60;99.90;;;;;;5051000;28;20177;-63
2020/12/17 08:54:36;;;;;;;27.07;17.50;;;7.60;1.00;;;;;;5050400;28;20436;-62
2020/12/17 08:57:07;;;;;;;28.77;17.80;;;7.60;99.90;;;;;;5050226;28;20453;-64
2020/12/17 08:59:33;;;;;;;26.23;17.63;;;7.60;1.00;;;;;;5050441;28;20414;-64
2020/12/17 09:01:59;;;;;;;28.87;17.63;;;7.50;99.90;;;;;;5050219;28;20819;-60
2020/12/17 09:04:26;;;;;;;30.60;18.70;;;7.40;9.90;;;;;;5050141;28;20464;-61
2020/12/17 09:06:53;;;;;;;30.80;19.48;;;7.20;99.90;;;;;;5049542;28;20415;-61
2020/12/17 09:09:25;;;;;;;31.00;19.08;;;6.90;76.80;;;;;;5050760;28;20191;-61
2020/12/17 09:12:01;;;;;;;28.95;18.65;;;6.80;99.90;;;;;;5051221;28;20245;-61
2020/12/17 09:14:29;;;;;;;27.42;18.45;;;6.50;99.90;;;;;;5054526;28;20256;-61
2020/12/17 09:17:05;;;;;;;28.40;18.20;;;6.40;1.00;;;;;;5069881;28;20209;-60
2020/12/17 09:19:31;;;;;;;27.75;18.40;;;6.60;1.00;;;;;;5070827;28;20181;-61
2020/12/17 09:22:00;;;;;;;29.48;19.90;;;6.50;99.90;;;;;;5052796;28;20182;-56
2020/12/17 09:24:37;;;;;;;30.80;18.83;;;6.50;99.90;;;;;;5064849;28;20179;-58
2020/12/17 09:27:23;;;;;;;31.75;18.92;;;6.40;1.00;;;;;;5070523;28;20169;-57
2020/12/17 09:30:11;;;;;;;29.65;18.85;;;6.30;1.00;;;;;;5050613;28;20190;-56
2020/12/17 09:32:59;;;;;;;30.00;18.85;;;6.20;1.00;;;;;;5050751;28;20186;-53
2020/12/17 09:35:32;;;;;;;28.58;16.42;;;6.10;1.00;;;;;;5059772;28;20608;-57
2020/12/17 09:38:05;;;;;;;27.42;17.52;;;6.10;1.00;;;;;;5056914;28;20197;-58
2020/12/17 09:40:32;;;;;;;27.75;18.20;;;6.10;1.00;;;;;;5050298;28;20880;-55
2020/12/17 09:43:12;;;;;;;28.00;17.52;;;6.10;1.00;;;;;;5049778;28;21073;-57
2020/12/17 09:45:40;;;;;;;31.17;18.58;;;6.20;1.00;;;;;;5032158;28;20221;-58
2020/12/17 09:48:18;;;;;;;26.73;18.10;;;6.10;1.00;;;;;;5065066;28;20208;-59
2020/12/17 09:50:54;;;;;;;30.35;19.45;;;6.00;1.00;;;;;;5070628;28;20157;-58
2020/12/17 09:53:21;;;;;;;27.60;18.05;;;6.10;1.00;;;;;;5068632;28;20173;-56
2020/12/17 09:55:48;;;;;;;29.20;18.17;;;6.30;1.00;;;;;;5062159;28;20170;-58
2020/12/17 09:58:13;;;;;;;32.25;18.80;;;6.70;1.00;;;;;;5052340;28;20208;-58
2020/12/17 10:00:39;;;;;;;28.63;17.77;;;6.90;99.90;;;;;;5050081;28;20253;-59
2020/12/17 10:03:04;;;;;;;29.00;17.47;;;7.30;99.90;;;;;;5049811;28;20184;-59
2020/12/17 10:05:30;;;;;;;30.20;19.63;;;7.40;1.00;;;;;;5057968;28;20176;-60
2020/12/17 10:07:56;;;;;;;25.67;17.33;;;7.40;1.00;;;;;;5049499;28;20283;-58
2020/12/17 10:10:21;;;;;;;31.07;17.87;;;7.50;1.00;;;;;;5051574;28;20188;-58
2020/12/17 10:12:48;;;;;;;27.30;18.40;;;7.60;1.00;;;;;;5054696;28;20994;-59
2020/12/17 10:15:13;;;;;;;31.90;19.00;;;7.40;1.00;;;;;;5052846;28;20176;-57
2020/12/17 10:17:39;;;;;;;27.10;17.93;;;7.30;1.00;;;;;;5048485;28;21037;-59
2020/12/17 10:20:06;;;;;;;29.77;18.00;;;7.30;1.00;;;;;;5063056;28;20182;-59
2020/12/17 10:22:32;;;;;;;30.15;17.70;;;7.20;1.00;;;;;;5049590;28;20589;-59
2020/12/17 10:24:58;;;;;;;30.80;18.90;;;7.20;1.00;;;;;;5055098;28;20358;-59
2020/12/17 10:27:24;;;;;;;28.50;17.77;;;7.10;3.80;;;;;;5049656;28;20586;-57
2020/12/17 10:29:49;;;;;;;28.80;18.93;;;7.10;30.00;;;;;;5048578;28;20182;-59
2020/12/17 10:32:18;;;;;;;30.00;17.53;;;7.10;99.90;;;;;;5048903;28;20421;-59
2020/12/17 10:34:43;;;;;;;29.77;18.52;;;7.10;99.90;;;;;;5054882;28;20186;-57
2020/12/17 10:37:09;;;;;;;29.60;18.23;;;7.10;99.90;;;;;;5049057;28;20233;-57
2020/12/17 10:39:35;;;;;;;29.50;18.83;;;7.10;99.90;;;;;;5052329;28;20170;-57
2020/12/17 10:42:04;;;;;;;30.37;18.20;;;7.30;99.90;;;;;;5049715;28;20458;-58
2020/12/17 10:44:30;;;;;;;29.65;17.77;;;7.40;1.00;;;;;;5049731;28;20841;-57
2020/12/17 10:46:57;;;;;;;30.87;18.73;;;7.80;1.00;;;;;;5056494;28;20337;-58
2020/12/17 10:49:22;;;;;;;33.93;20.30;;;8.00;85.90;;;;;;5048672;28;20423;-58
2020/12/17 10:51:51;;;;;;;27.30;19.00;;;8.20;99.90;;;;;;5050412;28;20760;-57
2020/12/17 10:54:17;;;;;;;30.60;18.43;;;8.40;99.90;;;;;;5060469;28;20663;-58
2020/12/17 10:56:49;;;;;;;31.63;20.63;;;8.60;99.90;;;;;;5048003;28;20456;-58
2020/12/17 10:59:15;;;;;;;25.50;17.10;;;8.80;1.00;;;;;;5048714;28;20582;-57
2020/12/17 11:01:40;;;;;;;27.97;19.43;;;8.90;99.90;;;;;;5057007;28;20439;-57
2020/12/17 11:04:06;;;;;;;30.90;19.83;;;8.90;1.00;;;;;;5056016;28;20439;-57
2020/12/17 11:06:31;;;;;;;28.90;18.50;;;9.00;1.00;;;;;;5047930;28;20180;-54
2020/12/17 11:08:57;;;;;;;31.00;19.67;;;9.00;1.00;;;;;;5058180;28;20174;-58
2020/12/17 11:11:23;;;;;;;28.90;18.80;;;8.70;25.50;;;;;;5048008;28;20181;-54
2020/12/17 11:13:49;;;;;;;32.53;20.10;;;8.50;99.90;;;;;;5048130;28;20553;-56
2020/12/17 11:16:17;;;;;;;31.00;19.23;;;8.30;1.00;;;;;;5061565;28;20200;-59
2020/12/17 11:18:43;;;;;;;31.07;19.20;;;8.20;99.90;;;;;;5052006;28;20418;-56
2020/12/17 11:21:09;;;;;;;27.97;18.13;;;8.20;1.00;;;;;;5048186;28;20415;-57
2020/12/17 11:23:35;;;;;;;28.93;19.43;;;8.10;66.70;;;;;;5057751;28;20180;-58
2020/12/17 11:26:02;;;;;;;25.07;17.50;;;8.00;99.90;;;;;;5048129;28;20795;-58
2020/12/17 11:28:28;;;;;;;30.90;19.53;;;8.10;99.90;;;;;;5048402;28;20427;-57
2020/12/17 11:30:53;;;;;;;28.40;18.60;;;8.30;99.90;;;;;;5060803;28;20795;-55
2020/12/17 11:33:19;;;;;;;26.93;17.73;;;8.50;99.90;;;;;;5068729;28;20181;-58
2020/12/17 11:35:45;;;;;;;26.53;18.30;;;8.70;1.00;;;;;;5053102;28;20917;-59
2020/12/17 11:38:14;;;;;;;32.43;18.77;;;8.80;99.90;;;;;;5058500;28;20184;-60
2020/12/17 11:40:40;;;;;;;27.70;17.87;;;8.70;1.00;;;;;;5068799;28;20224;-57
2020/12/17 11:43:05;;;;;;;27.80;17.90;;;8.70;1.00;;;;;;5055526;28;20522;-58
2020/12/17 11:45:31;;;;;;;27.07;17.97;;;8.50;1.00;;;;;;5054616;28;20229;-58
2020/12/17 11:47:57;;;;;;;28.93;19.10;;;8.50;99.90;;;;;;5030210;28;20192;-57
2020/12/17 11:50:22;;;;;;;28.23;18.70;;;8.30;1.00;;;;;;5048705;28;20190;-58
2020/12/17 11:52:48;;;;;;;28.77;18.67;;;8.20;99.90;;;;;;5061232;28;20219;-57
2020/12/17 11:55:14;;;;;;;28.47;18.37;;;8.10;1.00;;;;;;5053515;28;20203;-58
2020/12/17 11:57:40;;;;;;;29.00;18.60;;;7.90;1.00;;;;;;5053291;28;20555;-56
2020/12/17 12:00:07;;;;;;;31.30;19.67;;;7.80;99.90;;;;;;5051622;28;20422;-57
2020/12/17 12:02:34;;;;;;;31.50;19.40;;;7.80;99.90;;;;;;5055585;28;20278;-57
2020/12/17 12:05:00;;;;;;;27.50;17.67;;;7.70;1.00;;;;;;5048078;28;20505;-56
2020/12/17 12:07:26;;;;;;;28.17;19.07;;;7.70;1.00;;;;;;5030590;28;20464;-58
2020/12/17 12:09:52;;;;;;;28.70;18.13;;;7.90;1.00;;;;;;5047321;28;20693;-57
2020/12/17 12:12:18;;;;;;;26.27;18.10;;;8.30;99.90;;;;;;5047938;28;20636;-57
2020/12/17 12:14:44;;;;;;;31.43;18.30;;;8.50;1.00;;;;;;5047180;28;20497;-57
2020/12/17 12:17:10;;;;;;;31.80;19.30;;;8.50;99.90;;;;;;5046327;28;20475;-58
2020/12/17 12:19:35;;;;;;;28.13;17.33;;;8.40;99.90;;;;;;5047873;28;20431;-58
2020/12/17 12:22:01;;;;;;;26.10;17.97;;;8.20;99.90;;;;;;5048782;28;20662;-55
2020/12/17 12:24:27;;;;;;;25.33;17.00;;;8.20;1.00;;;;;;5038484;28;20208;-57
2020/12/17 12:26:52;;;;;;;28.33;17.53;;;8.10;1.00;;;;;;5048613;28;20260;-54
2020/12/17 12:29:18;;;;;;;27.83;17.50;;;8.00;47.30;;;;;;5063057;28;20211;-61
2020/12/17 12:31:44;;;;;;;28.23;17.20;;;8.00;99.90;;;;;;5067286;28;20325;-62
2020/12/17 12:34:09;;;;;;;27.40;18.20;;;7.90;1.00;;;;;;5048123;28;20267;-61
2020/12/17 12:36:35;;;;;;;28.67;17.30;;;7.80;1.00;;;;;;5047587;28;20683;-63
2020/12/17 12:39:00;;;;;;;24.23;16.03;;;7.90;99.90;;;;;;5047756;28;20208;-63
2020/12/17 12:41:26;;;;;;;27.10;17.47;;;8.00;1.00;;;;;;5048804;28;20188;-60